Главная страница
METAR-TAF:

METAR-TAF

Аэропорты :

Сённерборг, Дания

широта: 54-58N, долгота: 009-47E, высота над уровнем моря: 7 м

Текущие метеонаблюдения

Эта сводка был подготовлена 27 минут назад, в 18:50 UTC
Ветер 7 Узел от западный-юго-западный, изменяющийся между южный-юго-западный и западно-северо-западный
Температура 12°C
Влажность 76%
Давление 1021 hPa
Видимость 10 км и более
Рассеянная облачность на высоте 3000 фута

METAR: EKSB 221850Z 25007KT 200V300 9999 BKN030 12/08 Q1021

Время: 21:17 (19:17 UTC)

Прогноз

Эта сводка был подготовлена 1 час и 27 минут назад, в 17:50 UTC
Прогноз действительный с 22-го 18 UTC до 22-го 22 UTC
Ветер 6 Узел от западный-юго-западный
Видимость: 8000 м
Рассеянная облачность на высоте 2000 фута
временами
С 22-го 18 UTC до 22-го 22 UTC
Видимость: 4000 м
Рассеянная облачность на высоте 800 фута
дымка

TAF: EKSB 221750Z 2218/2222 24006KT 8000 BKN020 TEMPO 2218/2222 4000 BR BKN008

Метеонаблюдения и прогнозы для более 4000 аэропортов (сводки METAR и TAF).

Имеющиеся станции представлены на карте желтыми и красными точками.

Чтобы увидеть название станции, наведите на нее мышь.

Затем щелкните, чтобы увидеть метеонаблюдения и метеопрогнозы.

Управление картой: чтобы увеличить масштаб, щелкните зеленые кнопки с черным крестиком; чтобы уменьшить масштаб, щелкните зеленую кнопку с тире; для просмотра соседних карт щелкайте зеленые стрелки.


METAR-TAF: